sensor_id;sensor_type;location;lat;lon;timestamp;temperature;humidity
18456;DHT22;9357;49.900;8.208;2023-04-03T00:00:20;4.40;99.90
18456;DHT22;9357;49.900;8.208;2023-04-03T00:01:54;4.40;99.90
18456;DHT22;9357;49.900;8.208;2023-04-03T00:03:27;4.40;99.90
18456;DHT22;9357;49.900;8.208;2023-04-03T00:05:00;4.40;99.90
18456;DHT22;9357;49.900;8.208;2023-04-03T00:06:33;4.40;99.90
18456;DHT22;9357;49.900;8.208;2023-04-03T00:08:07;4.30;99.90
18456;DHT22;9357;49.900;8.208;2023-04-03T00:09:41;4.40;99.90
18456;DHT22;9357;49.900;8.208;2023-04-03T00:11:13;4.40;99.90
18456;DHT22;9357;49.900;8.208;2023-04-03T00:12:46;4.30;99.90
18456;DHT22;9357;49.900;8.208;2023-04-03T00:14:19;4.40;99.90
18456;DHT22;9357;49.900;8.208;2023-04-03T00:15:52;4.40;99.90
18456;DHT22;9357;49.900;8.208;2023-04-03T00:17:25;4.40;99.90
18456;DHT22;9357;49.900;8.208;2023-04-03T00:18:58;4.40;99.90
18456;DHT22;9357;49.900;8.208;2023-04-03T00:20:31;4.40;99.90
18456;DHT22;9357;49.900;8.208;2023-04-03T00:22:04;4.40;99.90
18456;DHT22;9357;49.900;8.208;2023-04-03T00:23:39;4.40;99.90
18456;DHT22;9357;49.900;8.208;2023-04-03T00:25:10;4.40;99.90
18456;DHT22;9357;49.900;8.208;2023-04-03T00:26:43;4.40;99.90
18456;DHT22;9357;49.900;8.208;2023-04-03T00:28:15;4.40;99.90
18456;DHT22;9357;49.900;8.208;2023-04-03T00:29:48;4.40;99.90
18456;DHT22;9357;49.900;8.208;2023-04-03T00:31:20;4.40;99.90
18456;DHT22;9357;49.900;8.208;2023-04-03T00:32:53;4.40;99.90
18456;DHT22;9357;49.900;8.208;2023-04-03T00:34:26;4.40;99.90
18456;DHT22;9357;49.900;8.208;2023-04-03T00:35:59;4.40;99.90
18456;DHT22;9357;49.900;8.208;2023-04-03T00:37:32;4.40;99.90
18456;DHT22;9357;49.900;8.208;2023-04-03T00:39:06;4.40;99.90
18456;DHT22;9357;49.900;8.208;2023-04-03T00:40:42;4.40;99.90
18456;DHT22;9357;49.900;8.208;2023-04-03T00:42:15;4.40;99.90
18456;DHT22;9357;49.900;8.208;2023-04-03T00:43:48;4.40;99.90
18456;DHT22;9357;49.900;8.208;2023-04-03T00:45:32;4.40;99.90
18456;DHT22;9357;49.900;8.208;2023-04-03T00:47:08;4.40;99.90
18456;DHT22;9357;49.900;8.208;2023-04-03T00:48:42;4.40;99.90
18456;DHT22;9357;49.900;8.208;2023-04-03T00:50:16;4.40;99.90
18456;DHT22;9357;49.900;8.208;2023-04-03T00:51:48;4.40;99.90
18456;DHT22;9357;49.900;8.208;2023-04-03T00:53:25;4.40;99.90
18456;DHT22;9357;49.900;8.208;2023-04-03T00:55:02;4.40;99.90
18456;DHT22;9357;49.900;8.208;2023-04-03T00:56:36;4.40;99.90
18456;DHT22;9357;49.900;8.208;2023-04-03T00:58:09;4.40;99.90
18456;DHT22;9357;49.900;8.208;2023-04-03T00:59:46;4.40;99.90
18456;DHT22;9357;49.900;8.208;2023-04-03T01:01:22;4.40;99.90
18456;DHT22;9357;49.900;8.208;2023-04-03T01:02:56;4.40;99.90
18456;DHT22;9357;49.900;8.208;2023-04-03T01:04:30;4.40;99.90
18456;DHT22;9357;49.900;8.208;2023-04-03T01:06:04;4.50;99.90
18456;DHT22;9357;49.900;8.208;2023-04-03T01:07:36;4.40;99.90
18456;DHT22;9357;49.900;8.208;2023-04-03T01:09:09;4.50;99.90
18456;DHT22;9357;49.900;8.208;2023-04-03T01:10:43;4.50;99.90
18456;DHT22;9357;49.900;8.208;2023-04-03T01:12:18;4.50;99.90
18456;DHT22;9357;49.900;8.208;2023-04-03T01:13:50;4.50;99.90
18456;DHT22;9357;49.900;8.208;2023-04-03T01:15:25;4.50;99.90
18456;DHT22;9357;49.900;8.208;2023-04-03T01:17:00;4.50;99.90
18456;DHT22;9357;49.900;8.208;2023-04-03T01:18:33;4.50;99.90
18456;DHT22;9357;49.900;8.208;2023-04-03T01:20:34;4.60;99.90
18456;DHT22;9357;49.900;8.208;2023-04-03T01:22:15;4.60;99.90
18456;DHT22;9357;49.900;8.208;2023-04-03T01:24:03;4.60;99.90
18456;DHT22;9357;49.900;8.208;2023-04-03T01:25:40;4.60;99.90
18456;DHT22;9357;49.900;8.208;2023-04-03T01:27:14;4.60;99.90
18456;DHT22;9357;49.900;8.208;2023-04-03T01:28:48;4.60;99.90
18456;DHT22;9357;49.900;8.208;2023-04-03T01:30:25;4.60;99.90
18456;DHT22;9357;49.900;8.208;2023-04-03T01:32:03;4.60;99.90
18456;DHT22;9357;49.900;8.208;2023-04-03T01:33:36;4.60;99.90
18456;DHT22;9357;49.900;8.208;2023-04-03T01:35:09;4.60;99.90
18456;DHT22;9357;49.900;8.208;2023-04-03T01:36:42;4.60;99.90
18456;DHT22;9357;49.900;8.208;2023-04-03T01:38:15;4.50;99.90
18456;DHT22;9357;49.900;8.208;2023-04-03T01:39:48;4.60;99.90
18456;DHT22;9357;49.900;8.208;2023-04-03T01:41:21;4.60;99.90
18456;DHT22;9357;49.900;8.208;2023-04-03T01:42:54;4.60;99.90
18456;DHT22;9357;49.900;8.208;2023-04-03T01:44:27;4.60;99.90
18456;DHT22;9357;49.900;8.208;2023-04-03T01:46:00;4.50;99.90
18456;DHT22;9357;49.900;8.208;2023-04-03T01:47:33;4.50;99.90
18456;DHT22;9357;49.900;8.208;2023-04-03T01:49:06;4.50;99.90
18456;DHT22;9357;49.900;8.208;2023-04-03T01:50:38;4.50;99.90
18456;DHT22;9357;49.900;8.208;2023-04-03T01:52:11;4.50;99.90
18456;DHT22;9357;49.900;8.208;2023-04-03T01:53:44;4.50;99.90
18456;DHT22;9357;49.900;8.208;2023-04-03T01:55:17;4.50;99.90
18456;DHT22;9357;49.900;8.208;2023-04-03T01:56:49;4.60;99.90
18456;DHT22;9357;49.900;8.208;2023-04-03T01:58:22;4.50;99.90
18456;DHT22;9357;49.900;8.208;2023-04-03T01:59:55;4.50;99.90
18456;DHT22;9357;49.900;8.208;2023-04-03T02:01:28;4.50;99.90
18456;DHT22;9357;49.900;8.208;2023-04-03T02:03:03;4.50;99.90
18456;DHT22;9357;49.900;8.208;2023-04-03T02:04:36;4.50;99.90
18456;DHT22;9357;49.900;8.208;2023-04-03T02:06:08;4.60;99.90
18456;DHT22;9357;49.900;8.208;2023-04-03T02:07:43;4.60;99.90
18456;DHT22;9357;49.900;8.208;2023-04-03T02:09:16;4.60;99.90
18456;DHT22;9357;49.900;8.208;2023-04-03T02:10:48;4.50;99.90
18456;DHT22;9357;49.900;8.208;2023-04-03T02:12:21;4.50;99.90
18456;DHT22;9357;49.900;8.208;2023-04-03T02:13:53;4.50;99.90
18456;DHT22;9357;49.900;8.208;2023-04-03T02:15:26;4.50;99.90
18456;DHT22;9357;49.900;8.208;2023-04-03T02:17:00;4.60;99.90
18456;DHT22;9357;49.900;8.208;2023-04-03T02:18:37;4.50;99.90
18456;DHT22;9357;49.900;8.208;2023-04-03T02:20:11;4.50;99.90
18456;DHT22;9357;49.900;8.208;2023-04-03T02:21:43;4.50;99.90
18456;DHT22;9357;49.900;8.208;2023-04-03T02:23:16;4.50;99.90
18456;DHT22;9357;49.900;8.208;2023-04-03T02:24:48;4.50;99.90
18456;DHT22;9357;49.900;8.208;2023-04-03T02:26:22;4.50;99.90
18456;DHT22;9357;49.900;8.208;2023-04-03T02:27:54;4.50;99.90
18456;DHT22;9357;49.900;8.208;2023-04-03T02:29:27;4.50;99.90
18456;DHT22;9357;49.900;8.208;2023-04-03T02:30:59;4.50;99.90
18456;DHT22;9357;49.900;8.208;2023-04-03T02:32:32;4.50;99.90
18456;DHT22;9357;49.900;8.208;2023-04-03T02:34:06;4.50;99.90
18456;DHT22;9357;49.900;8.208;2023-04-03T02:35:39;4.50;99.90
18456;DHT22;9357;49.900;8.208;2023-04-03T02:37:12;4.50;99.90
18456;DHT22;9357;49.900;8.208;2023-04-03T02:38:45;4.50;99.90
18456;DHT22;9357;49.900;8.208;2023-04-03T02:40:18;4.40;99.90
18456;DHT22;9357;49.900;8.208;2023-04-03T02:41:50;4.40;99.90
18456;DHT22;9357;49.900;8.208;2023-04-03T02:43:23;4.40;99.90
18456;DHT22;9357;49.900;8.208;2023-04-03T02:44:56;4.50;99.90
18456;DHT22;9357;49.900;8.208;2023-04-03T02:46:31;4.40;99.90
18456;DHT22;9357;49.900;8.208;2023-04-03T02:48:03;4.40;99.90
18456;DHT22;9357;49.900;8.208;2023-04-03T02:49:38;4.40;99.90
18456;DHT22;9357;49.900;8.208;2023-04-03T02:51:10;4.40;99.90
18456;DHT22;9357;49.900;8.208;2023-04-03T02:52:42;4.40;99.90
18456;DHT22;9357;49.900;8.208;2023-04-03T02:54:15;4.50;99.90
18456;DHT22;9357;49.900;8.208;2023-04-03T02:55:47;4.40;99.90
18456;DHT22;9357;49.900;8.208;2023-04-03T02:57:20;4.40;99.90
18456;DHT22;9357;49.900;8.208;2023-04-03T02:58:52;4.40;99.90
18456;DHT22;9357;49.900;8.208;2023-04-03T03:00:24;4.40;99.90
18456;DHT22;9357;49.900;8.208;2023-04-03T03:01:56;4.30;99.90
18456;DHT22;9357;49.900;8.208;2023-04-03T03:03:29;4.40;99.90
18456;DHT22;9357;49.900;8.208;2023-04-03T03:05:04;4.40;99.90
18456;DHT22;9357;49.900;8.208;2023-04-03T03:06:37;4.30;99.90
18456;DHT22;9357;49.900;8.208;2023-04-03T03:08:09;4.40;99.90
18456;DHT22;9357;49.900;8.208;2023-04-03T03:09:42;4.40;99.90
18456;DHT22;9357;49.900;8.208;2023-04-03T03:11:15;4.40;99.90
18456;DHT22;9357;49.900;8.208;2023-04-03T03:12:48;4.40;99.90
18456;DHT22;9357;49.900;8.208;2023-04-03T03:14:21;4.40;99.90
18456;DHT22;9357;49.900;8.208;2023-04-03T03:15:54;4.40;99.90
18456;DHT22;9357;49.900;8.208;2023-04-03T03:17:26;4.40;99.90
18456;DHT22;9357;49.900;8.208;2023-04-03T03:18:59;4.40;99.90
18456;DHT22;9357;49.900;8.208;2023-04-03T03:20:33;4.40;99.90
18456;DHT22;9357;49.900;8.208;2023-04-03T03:22:06;4.40;99.90
18456;DHT22;9357;49.900;8.208;2023-04-03T03:23:39;4.40;99.90
18456;DHT22;9357;49.900;8.208;2023-04-03T03:25:13;4.40;99.90
18456;DHT22;9357;49.900;8.208;2023-04-03T03:26:45;4.40;99.90
18456;DHT22;9357;49.900;8.208;2023-04-03T03:28:18;4.40;99.90
18456;DHT22;9357;49.900;8.208;2023-04-03T03:29:50;4.40;99.90
18456;DHT22;9357;49.900;8.208;2023-04-03T03:31:23;4.40;99.90
18456;DHT22;9357;49.900;8.208;2023-04-03T03:32:56;4.40;99.90
18456;DHT22;9357;49.900;8.208;2023-04-03T03:34:27;4.40;99.90
18456;DHT22;9357;49.900;8.208;2023-04-03T03:36:02;4.40;99.90
18456;DHT22;9357;49.900;8.208;2023-04-03T03:37:35;4.40;99.90
18456;DHT22;9357;49.900;8.208;2023-04-03T03:39:08;4.40;99.90
18456;DHT22;9357;49.900;8.208;2023-04-03T03:40:41;4.40;99.90
18456;DHT22;9357;49.900;8.208;2023-04-03T03:42:14;4.40;99.90
18456;DHT22;9357;49.900;8.208;2023-04-03T03:43:47;4.40;99.90
18456;DHT22;9357;49.900;8.208;2023-04-03T03:45:19;4.40;99.90
18456;DHT22;9357;49.900;8.208;2023-04-03T03:46:52;4.40;99.90
18456;DHT22;9357;49.900;8.208;2023-04-03T03:48:25;4.40;99.90
18456;DHT22;9357;49.900;8.208;2023-04-03T03:49:58;4.40;99.90
18456;DHT22;9357;49.900;8.208;2023-04-03T03:51:32;4.40;99.90
18456;DHT22;9357;49.900;8.208;2023-04-03T03:53:04;4.40;99.90
18456;DHT22;9357;49.900;8.208;2023-04-03T03:54:36;4.40;99.90
18456;DHT22;9357;49.900;8.208;2023-04-03T03:56:09;4.40;99.90
18456;DHT22;9357;49.900;8.208;2023-04-03T03:57:42;4.40;99.90
18456;DHT22;9357;49.900;8.208;2023-04-03T03:59:15;4.40;99.90
18456;DHT22;9357;49.900;8.208;2023-04-03T04:00:48;4.40;99.90
18456;DHT22;9357;49.900;8.208;2023-04-03T04:02:21;4.40;99.90
18456;DHT22;9357;49.900;8.208;2023-04-03T04:03:54;4.40;99.90
18456;DHT22;9357;49.900;8.208;2023-04-03T04:05:27;4.30;99.90
18456;DHT22;9357;49.900;8.208;2023-04-03T04:07:02;4.30;99.90
18456;DHT22;9357;49.900;8.208;2023-04-03T04:08:35;4.30;99.90
18456;DHT22;9357;49.900;8.208;2023-04-03T04:10:08;4.30;99.90
18456;DHT22;9357;49.900;8.208;2023-04-03T04:11:41;4.30;99.90
18456;DHT22;9357;49.900;8.208;2023-04-03T04:13:13;4.30;99.90
18456;DHT22;9357;49.900;8.208;2023-04-03T04:14:46;4.30;99.90
18456;DHT22;9357;49.900;8.208;2023-04-03T04:16:18;4.20;99.90
18456;DHT22;9357;49.900;8.208;2023-04-03T04:17:51;4.20;99.90
18456;DHT22;9357;49.900;8.208;2023-04-03T04:19:23;4.20;99.90
18456;DHT22;9357;49.900;8.208;2023-04-03T04:20:55;4.20;99.90
18456;DHT22;9357;49.900;8.208;2023-04-03T04:22:30;4.20;99.90
18456;DHT22;9357;49.900;8.208;2023-04-03T04:24:03;4.10;99.90
18456;DHT22;9357;49.900;8.208;2023-04-03T04:25:36;4.20;99.90
18456;DHT22;9357;49.900;8.208;2023-04-03T04:27:09;4.10;99.90
18456;DHT22;9357;49.900;8.208;2023-04-03T04:28:42;4.10;99.90
18456;DHT22;9357;49.900;8.208;2023-04-03T04:30:15;4.10;99.90
18456;DHT22;9357;49.900;8.208;2023-04-03T04:31:48;4.10;99.90
18456;DHT22;9357;49.900;8.208;2023-04-03T04:33:21;4.00;99.90
18456;DHT22;9357;49.900;8.208;2023-04-03T04:34:54;4.00;99.90
18456;DHT22;9357;49.900;8.208;2023-04-03T04:36:26;4.00;99.90
18456;DHT22;9357;49.900;8.208;2023-04-03T04:38:01;4.00;99.90
18456;DHT22;9357;49.900;8.208;2023-04-03T04:39:34;4.00;99.90
18456;DHT22;9357;49.900;8.208;2023-04-03T04:41:07;4.00;99.90
18456;DHT22;9357;49.900;8.208;2023-04-03T04:42:40;3.90;99.90
18456;DHT22;9357;49.900;8.208;2023-04-03T04:44:13;3.90;99.90
18456;DHT22;9357;49.900;8.208;2023-04-03T04:45:46;3.90;99.90
18456;DHT22;9357;49.900;8.208;2023-04-03T04:47:19;3.80;99.90
18456;DHT22;9357;49.900;8.208;2023-04-03T04:48:52;3.80;99.90
18456;DHT22;9357;49.900;8.208;2023-04-03T04:50:24;3.80;99.90
18456;DHT22;9357;49.900;8.208;2023-04-03T04:51:56;3.70;99.90
18456;DHT22;9357;49.900;8.208;2023-04-03T04:53:30;3.70;99.90
18456;DHT22;9357;49.900;8.208;2023-04-03T04:55:04;3.70;99.90
18456;DHT22;9357;49.900;8.208;2023-04-03T04:56:37;3.70;99.90
18456;DHT22;9357;49.900;8.208;2023-04-03T04:58:10;3.60;99.90
18456;DHT22;9357;49.900;8.208;2023-04-03T04:59:42;3.70;99.90
18456;DHT22;9357;49.900;8.208;2023-04-03T05:01:15;3.60;99.90
18456;DHT22;9357;49.900;8.208;2023-04-03T05:02:48;3.60;99.90
18456;DHT22;9357;49.900;8.208;2023-04-03T05:04:21;3.50;99.90
18456;DHT22;9357;49.900;8.208;2023-04-03T05:05:53;3.60;99.90
18456;DHT22;9357;49.900;8.208;2023-04-03T05:07:26;3.50;99.90
18456;DHT22;9357;49.900;8.208;2023-04-03T05:09:01;3.50;99.90
18456;DHT22;9357;49.900;8.208;2023-04-03T05:10:34;3.50;99.90
18456;DHT22;9357;49.900;8.208;2023-04-03T05:12:07;3.40;99.90
18456;DHT22;9357;49.900;8.208;2023-04-03T05:13:39;3.40;99.90
18456;DHT22;9357;49.900;8.208;2023-04-03T05:15:12;3.40;99.90
18456;DHT22;9357;49.900;8.208;2023-04-03T05:16:45;3.40;99.90
18456;DHT22;9357;49.900;8.208;2023-04-03T05:18:21;3.40;99.90
18456;DHT22;9357;49.900;8.208;2023-04-03T05:19:54;3.40;99.90
18456;DHT22;9357;49.900;8.208;2023-04-03T05:21:26;3.40;99.90
18456;DHT22;9357;49.900;8.208;2023-04-03T05:23:03;3.40;99.90
18456;DHT22;9357;49.900;8.208;2023-04-03T05:24:38;3.40;99.90
18456;DHT22;9357;49.900;8.208;2023-04-03T05:26:11;3.40;99.90
18456;DHT22;9357;49.900;8.208;2023-04-03T05:27:44;3.30;99.90
18456;DHT22;9357;49.900;8.208;2023-04-03T05:29:17;3.40;99.90
18456;DHT22;9357;49.900;8.208;2023-04-03T05:30:53;3.30;99.90
18456;DHT22;9357;49.900;8.208;2023-04-03T05:32:26;3.30;99.90
18456;DHT22;9357;49.900;8.208;2023-04-03T05:33:59;3.30;99.90
18456;DHT22;9357;49.900;8.208;2023-04-03T05:35:32;3.30;99.90
18456;DHT22;9357;49.900;8.208;2023-04-03T05:37:05;3.20;99.90
18456;DHT22;9357;49.900;8.208;2023-04-03T05:38:38;3.20;99.90
18456;DHT22;9357;49.900;8.208;2023-04-03T05:40:13;3.20;99.90
18456;DHT22;9357;49.900;8.208;2023-04-03T05:41:49;3.20;99.90
18456;DHT22;9357;49.900;8.208;2023-04-03T05:43:21;3.20;99.90
18456;DHT22;9357;49.900;8.208;2023-04-03T05:44:53;3.20;99.90
18456;DHT22;9357;49.900;8.208;2023-04-03T05:46:26;3.10;99.90
18456;DHT22;9357;49.900;8.208;2023-04-03T05:47:59;3.10;99.90
18456;DHT22;9357;49.900;8.208;2023-04-03T05:49:32;3.10;99.90
18456;DHT22;9357;49.900;8.208;2023-04-03T05:51:05;3.10;99.90
18456;DHT22;9357;49.900;8.208;2023-04-03T05:52:40;3.10;99.90
18456;DHT22;9357;49.900;8.208;2023-04-03T05:54:18;3.10;99.90
18456;DHT22;9357;49.900;8.208;2023-04-03T05:55:53;3.10;99.90
18456;DHT22;9357;49.900;8.208;2023-04-03T05:57:26;3.10;99.90
18456;DHT22;9357;49.900;8.208;2023-04-03T05:58:59;3.10;99.90
18456;DHT22;9357;49.900;8.208;2023-04-03T06:00:32;3.10;99.90
18456;DHT22;9357;49.900;8.208;2023-04-03T06:02:04;3.10;99.90
18456;DHT22;9357;49.900;8.208;2023-04-03T06:03:37;3.20;99.90
18456;DHT22;9357;49.900;8.208;2023-04-03T06:05:11;3.20;99.90
18456;DHT22;9357;49.900;8.208;2023-04-03T06:06:46;3.20;99.90
18456;DHT22;9357;49.900;8.208;2023-04-03T06:08:19;3.20;99.90
18456;DHT22;9357;49.900;8.208;2023-04-03T06:09:52;3.20;99.90
18456;DHT22;9357;49.900;8.208;2023-04-03T06:11:26;3.20;99.90
18456;DHT22;9357;49.900;8.208;2023-04-03T06:12:59;3.20;99.90
18456;DHT22;9357;49.900;8.208;2023-04-03T06:14:31;3.20;99.90
18456;DHT22;9357;49.900;8.208;2023-04-03T06:16:05;3.10;99.90
18456;DHT22;9357;49.900;8.208;2023-04-03T06:17:38;3.20;99.90
18456;DHT22;9357;49.900;8.208;2023-04-03T06:19:11;3.10;99.90
18456;DHT22;9357;49.900;8.208;2023-04-03T06:20:45;3.20;99.90
18456;DHT22;9357;49.900;8.208;2023-04-03T06:22:18;3.20;99.90
18456;DHT22;9357;49.900;8.208;2023-04-03T06:23:51;3.20;99.90
18456;DHT22;9357;49.900;8.208;2023-04-03T06:25:24;3.20;99.90
18456;DHT22;9357;49.900;8.208;2023-04-03T06:26:58;3.30;99.90
18456;DHT22;9357;49.900;8.208;2023-04-03T06:28:31;3.30;99.90
18456;DHT22;9357;49.900;8.208;2023-04-03T06:30:05;3.30;99.90
18456;DHT22;9357;49.900;8.208;2023-04-03T06:31:38;3.30;99.90
18456;DHT22;9357;49.900;8.208;2023-04-03T06:33:11;3.30;99.90
18456;DHT22;9357;49.900;8.208;2023-04-03T06:34:44;3.30;99.90
18456;DHT22;9357;49.900;8.208;2023-04-03T06:36:18;3.40;99.90
18456;DHT22;9357;49.900;8.208;2023-04-03T06:37:52;3.40;99.90
18456;DHT22;9357;49.900;8.208;2023-04-03T06:39:25;3.30;99.90
18456;DHT22;9357;49.900;8.208;2023-04-03T06:40:58;3.40;99.90
18456;DHT22;9357;49.900;8.208;2023-04-03T06:42:33;3.40;99.90
18456;DHT22;9357;49.900;8.208;2023-04-03T06:44:06;3.40;99.90
18456;DHT22;9357;49.900;8.208;2023-04-03T06:45:42;3.40;99.90
18456;DHT22;9357;49.900;8.208;2023-04-03T06:47:16;3.40;99.90
18456;DHT22;9357;49.900;8.208;2023-04-03T06:48:49;3.50;99.90
18456;DHT22;9357;49.900;8.208;2023-04-03T06:50:22;3.50;99.90
18456;DHT22;9357;49.900;8.208;2023-04-03T06:51:56;3.50;99.90
18456;DHT22;9357;49.900;8.208;2023-04-03T06:53:32;3.60;99.90
18456;DHT22;9357;49.900;8.208;2023-04-03T06:55:06;3.60;99.90
18456;DHT22;9357;49.900;8.208;2023-04-03T06:56:38;3.60;99.90
18456;DHT22;9357;49.900;8.208;2023-04-03T06:58:13;3.70;99.90
18456;DHT22;9357;49.900;8.208;2023-04-03T06:59:50;3.70;99.90
18456;DHT22;9357;49.900;8.208;2023-04-03T07:01:24;3.70;99.90
18456;DHT22;9357;49.900;8.208;2023-04-03T07:02:57;3.70;99.90
18456;DHT22;9357;49.900;8.208;2023-04-03T07:04:31;3.70;99.90
18456;DHT22;9357;49.900;8.208;2023-04-03T07:06:04;3.70;99.90
18456;DHT22;9357;49.900;8.208;2023-04-03T07:07:38;3.70;99.90
18456;DHT22;9357;49.900;8.208;2023-04-03T07:09:12;3.70;99.90
18456;DHT22;9357;49.900;8.208;2023-04-03T07:10:44;3.70;99.90
18456;DHT22;9357;49.900;8.208;2023-04-03T07:12:17;3.70;99.90
18456;DHT22;9357;49.900;8.208;2023-04-03T07:13:52;3.80;99.90
18456;DHT22;9357;49.900;8.208;2023-04-03T07:15:25;3.80;99.90
18456;DHT22;9357;49.900;8.208;2023-04-03T07:16:57;3.80;99.90
18456;DHT22;9357;49.900;8.208;2023-04-03T07:18:30;3.80;99.90
18456;DHT22;9357;49.900;8.208;2023-04-03T07:20:04;3.80;99.90
18456;DHT22;9357;49.900;8.208;2023-04-03T07:21:37;3.80;99.90
18456;DHT22;9357;49.900;8.208;2023-04-03T07:23:10;3.90;99.90
18456;DHT22;9357;49.900;8.208;2023-04-03T07:24:43;3.90;99.90
18456;DHT22;9357;49.900;8.208;2023-04-03T07:26:16;3.90;99.90
18456;DHT22;9357;49.900;8.208;2023-04-03T07:27:49;4.00;99.90
18456;DHT22;9357;49.900;8.208;2023-04-03T07:29:23;4.00;99.90
18456;DHT22;9357;49.900;8.208;2023-04-03T07:31:00;4.00;99.90
18456;DHT22;9357;49.900;8.208;2023-04-03T07:32:33;4.10;99.90
18456;DHT22;9357;49.900;8.208;2023-04-03T07:34:06;4.10;99.90
18456;DHT22;9357;49.900;8.208;2023-04-03T07:35:39;4.20;99.90
18456;DHT22;9357;49.900;8.208;2023-04-03T07:37:12;4.20;99.90
18456;DHT22;9357;49.900;8.208;2023-04-03T07:38:46;4.30;99.90
18456;DHT22;9357;49.900;8.208;2023-04-03T07:40:18;4.30;99.90
18456;DHT22;9357;49.900;8.208;2023-04-03T07:41:51;4.30;99.90
18456;DHT22;9357;49.900;8.208;2023-04-03T07:43:24;4.30;99.90
18456;DHT22;9357;49.900;8.208;2023-04-03T07:44:58;4.30;99.90
18456;DHT22;9357;49.900;8.208;2023-04-03T07:46:31;4.30;99.90
18456;DHT22;9357;49.900;8.208;2023-04-03T07:48:05;4.30;99.90
18456;DHT22;9357;49.900;8.208;2023-04-03T07:49:37;4.40;99.90
18456;DHT22;9357;49.900;8.208;2023-04-03T07:51:12;4.40;99.90
18456;DHT22;9357;49.900;8.208;2023-04-03T07:52:46;4.40;99.90
18456;DHT22;9357;49.900;8.208;2023-04-03T07:54:19;4.50;99.90
18456;DHT22;9357;49.900;8.208;2023-04-03T07:55:51;4.70;99.90
18456;DHT22;9357;49.900;8.208;2023-04-03T07:57:27;4.90;99.90
18456;DHT22;9357;49.900;8.208;2023-04-03T07:58:59;5.20;99.90
18456;DHT22;9357;49.900;8.208;2023-04-03T08:00:34;5.60;99.90
18456;DHT22;9357;49.900;8.208;2023-04-03T08:02:08;5.80;99.90
18456;DHT22;9357;49.900;8.208;2023-04-03T08:03:41;6.10;99.90
18456;DHT22;9357;49.900;8.208;2023-04-03T08:05:15;6.20;99.90
18456;DHT22;9357;49.900;8.208;2023-04-03T08:06:47;6.40;99.90
18456;DHT22;9357;49.900;8.208;2023-04-03T08:08:22;6.60;99.90
18456;DHT22;9357;49.900;8.208;2023-04-03T08:09:54;6.80;99.90
18456;DHT22;9357;49.900;8.208;2023-04-03T08:11:27;7.00;99.90
18456;DHT22;9357;49.900;8.208;2023-04-03T08:13:03;7.10;99.90
18456;DHT22;9357;49.900;8.208;2023-04-03T08:14:37;7.30;99.90
18456;DHT22;9357;49.900;8.208;2023-04-03T08:16:12;7.30;99.90
18456;DHT22;9357;49.900;8.208;2023-04-03T08:17:45;7.30;99.90
18456;DHT22;9357;49.900;8.208;2023-04-03T08:19:18;7.30;99.90
18456;DHT22;9357;49.900;8.208;2023-04-03T08:20:57;7.30;99.90
18456;DHT22;9357;49.900;8.208;2023-04-03T08:22:30;7.40;99.90
18456;DHT22;9357;49.900;8.208;2023-04-03T08:24:03;7.50;99.90
18456;DHT22;9357;49.900;8.208;2023-04-03T08:25:38;7.60;99.90
18456;DHT22;9357;49.900;8.208;2023-04-03T08:27:11;7.80;99.90
18456;DHT22;9357;49.900;8.208;2023-04-03T08:28:43;7.80;99.90
18456;DHT22;9357;49.900;8.208;2023-04-03T08:30:16;7.90;99.90
18456;DHT22;9357;49.900;8.208;2023-04-03T08:31:51;8.00;99.90
18456;DHT22;9357;49.900;8.208;2023-04-03T08:33:24;7.90;99.90
18456;DHT22;9357;49.900;8.208;2023-04-03T08:34:57;7.90;99.90
18456;DHT22;9357;49.900;8.208;2023-04-03T08:36:30;8.00;99.90
18456;DHT22;9357;49.900;8.208;2023-04-03T08:38:02;8.10;99.90
18456;DHT22;9357;49.900;8.208;2023-04-03T08:39:35;8.10;99.90
18456;DHT22;9357;49.900;8.208;2023-04-03T08:41:15;8.10;99.90
18456;DHT22;9357;49.900;8.208;2023-04-03T08:42:57;8.10;99.90
18456;DHT22;9357;49.900;8.208;2023-04-03T08:44:41;8.30;99.90
18456;DHT22;9357;49.900;8.208;2023-04-03T08:46:22;8.30;99.90
18456;DHT22;9357;49.900;8.208;2023-04-03T08:48:01;8.40;99.90
18456;DHT22;9357;49.900;8.208;2023-04-03T08:49:40;8.40;99.90
18456;DHT22;9357;49.900;8.208;2023-04-03T08:51:20;8.40;99.90
18456;DHT22;9357;49.900;8.208;2023-04-03T08:52:56;8.50;99.90
18456;DHT22;9357;49.900;8.208;2023-04-03T08:54:32;8.50;99.90
18456;DHT22;9357;49.900;8.208;2023-04-03T08:56:09;8.40;99.90
18456;DHT22;9357;49.900;8.208;2023-04-03T08:57:44;8.40;99.90
18456;DHT22;9357;49.900;8.208;2023-04-03T08:59:22;8.30;99.90
18456;DHT22;9357;49.900;8.208;2023-04-03T09:01:00;8.30;99.90
18456;DHT22;9357;49.900;8.208;2023-04-03T09:02:41;8.30;99.90
18456;DHT22;9357;49.900;8.208;2023-04-03T09:04:18;8.40;99.90
18456;DHT22;9357;49.900;8.208;2023-04-03T09:05:55;8.60;99.90
18456;DHT22;9357;49.900;8.208;2023-04-03T09:07:33;8.70;99.90
18456;DHT22;9357;49.900;8.208;2023-04-03T09:09:14;8.90;99.90
18456;DHT22;9357;49.900;8.208;2023-04-03T09:10:49;9.10;99.90
18456;DHT22;9357;49.900;8.208;2023-04-03T09:12:24;9.20;99.90
18456;DHT22;9357;49.900;8.208;2023-04-03T09:14:01;9.40;99.90
18456;DHT22;9357;49.900;8.208;2023-04-03T09:15:35;9.50;99.90
18456;DHT22;9357;49.900;8.208;2023-04-03T09:17:15;9.60;99.90
18456;DHT22;9357;49.900;8.208;2023-04-03T09:18:54;9.70;99.90
18456;DHT22;9357;49.900;8.208;2023-04-03T09:20:39;9.90;99.90
18456;DHT22;9357;49.900;8.208;2023-04-03T09:22:17;9.80;99.90
18456;DHT22;9357;49.900;8.208;2023-04-03T09:23:52;9.80;99.90
18456;DHT22;9357;49.900;8.208;2023-04-03T09:25:27;9.70;99.90
18456;DHT22;9357;49.900;8.208;2023-04-03T09:27:05;9.60;99.90
18456;DHT22;9357;49.900;8.208;2023-04-03T09:28:40;9.50;99.90
18456;DHT22;9357;49.900;8.208;2023-04-03T09:30:23;9.50;99.90
18456;DHT22;9357;49.900;8.208;2023-04-03T09:31:58;9.70;99.90
18456;DHT22;9357;49.900;8.208;2023-04-03T09:33:32;9.80;99.90
18456;DHT22;9357;49.900;8.208;2023-04-03T09:35:17;10.00;99.90
18456;DHT22;9357;49.900;8.208;2023-04-03T09:37:04;10.20;99.90
18456;DHT22;9357;49.900;8.208;2023-04-03T09:38:38;10.30;99.90
18456;DHT22;9357;49.900;8.208;2023-04-03T09:40:35;10.30;99.90
18456;DHT22;9357;49.900;8.208;2023-04-03T09:42:18;10.50;99.90
18456;DHT22;9357;49.900;8.208;2023-04-03T09:43:53;10.60;99.90
18456;DHT22;9357;49.900;8.208;2023-04-03T09:45:28;10.60;99.90
18456;DHT22;9357;49.900;8.208;2023-04-03T09:47:18;10.40;99.90
18456;DHT22;9357;49.900;8.208;2023-04-03T09:48:52;10.30;99.90
18456;DHT22;9357;49.900;8.208;2023-04-03T09:50:54;10.10;99.90
18456;DHT22;9357;49.900;8.208;2023-04-03T09:52:31;10.20;99.90
18456;DHT22;9357;49.900;8.208;2023-04-03T09:54:30;10.10;99.90
18456;DHT22;9357;49.900;8.208;2023-04-03T09:56:05;10.00;99.90
18456;DHT22;9357;49.900;8.208;2023-04-03T09:57:51;9.90;99.90
18456;DHT22;9357;49.900;8.208;2023-04-03T09:59:24;9.80;99.90
18456;DHT22;9357;49.900;8.208;2023-04-03T10:00:59;9.90;99.90
18456;DHT22;9357;49.900;8.208;2023-04-03T10:02:35;10.10;99.90
18456;DHT22;9357;49.900;8.208;2023-04-03T10:04:10;10.10;99.90
18456;DHT22;9357;49.900;8.208;2023-04-03T10:05:43;10.10;99.90
18456;DHT22;9357;49.900;8.208;2023-04-03T10:07:28;9.90;99.90
18456;DHT22;9357;49.900;8.208;2023-04-03T10:09:04;9.60;99.90
18456;DHT22;9357;49.900;8.208;2023-04-03T10:10:38;9.30;99.90
18456;DHT22;9357;49.900;8.208;2023-04-03T10:12:12;9.10;99.90
18456;DHT22;9357;49.900;8.208;2023-04-03T10:13:55;9.00;99.90
18456;DHT22;9357;49.900;8.208;2023-04-03T10:15:36;9.00;99.90